• Join FlightAware (Why Join?)
  • Login
  • US Flag 
08:12PM EDT


 

Airport Tracker/Info


-or-


 

Live Flight TrackerFlight Track Log ✈ DAL6057 ✈ 22-Feb-2014 ✈ KCMH - KDTW

Flight Track Log - Related Links

Times and Time Zones

All times are in EST time to prevent confusion due to time zone crossing. See the DAL6057 flight status page for this flight to view local times or setup timezone preferences in your user account.

Time Position Orientation Groundspeed Altitude Reporting Facility
EST Latitude Longitude Course Direction KTS MPH feet Rate Location/Type
06:48AM 40.0042 -82.9103 21° North 136 157 1,400  Level Indianapolis Center
06:49AM 40.0050 -82.9242 274° West 134 154 2,000 2,040 Climbing Indianapolis Center
06:50AM 40.0114 -82.9692 281° West 164 189 3,800 2,400 Climbing Indianapolis Center
06:50AM 40.0161 -82.9833 294° West 182 209 4,400 2,400 Climbing Indianapolis Center
06:51AM 40.0614 -82.9653 17° North 217 250 6,300 2,400 Climbing Indianapolis Center
06:52AM 40.2980 -82.6586 29° Northeast  Level FlightAware Approximate
06:52AM 40.1181 -82.9075 38° Northeast 252 290 8,900  Level Indianapolis Center
06:53AM 40.3800 -82.6053 25° Northeast  Level FlightAware Approximate
06:53AM 40.1747 -82.8467 39° Northeast 260 299 11,300  Level Indianapolis Center
06:54AM 40.4646 -82.5594 21° North  Level FlightAware Approximate
06:54AM 40.2347 -82.7850 38° Northeast 270 311 12,900  Level Indianapolis Center
06:55AM 40.3069 -82.7064 40° Northeast 318 366 13,000  Climbing Indianapolis Center
06:56AM 40.3814 -82.6300 38° Northeast 330 380 13,000  Level Indianapolis Center
06:57AM 40.4603 -82.5703 30° Northeast 331 381 13,100  Climbing Indianapolis Center
06:58AM 40.5447 -82.5325 19° North 323 372 13,100  Level Indianapolis Center
06:59AM 40.6297 -82.4944 19° North 321 369 13,100  Level Indianapolis Center
07:00AM 40.7142 -82.4564 19° North 320 368 13,100  Level Indianapolis Center
07:01AM 40.7847 -82.4972 336° Northwest 279 321 13,100  Level Indianapolis Center
07:02AM 40.8536 -82.5383 336° Northwest 272 313 13,100  Level Indianapolis Center
07:03AM 40.9228 -82.5808 335° Northwest 268 308 13,100  Level Cleveland Center
07:04AM 40.9917 -82.6222 336° Northwest 268 308 13,100  Level Cleveland Center
07:05AM 41.0608 -82.6642 335° Northwest 269 310 13,100  Level Cleveland Center
07:06AM 41.1306 -82.7056 336° Northwest 269 310 13,100  Level Cleveland Center
07:07AM 41.1997 -82.7489 335° Northwest 269 310 13,100  Level Cleveland Center
07:08AM 41.2694 -82.7906 336° Northwest 270 311 13,100  Level Cleveland Center
07:09AM 41.3394 -82.8325 336° Northwest 270 311 13,100  Level Cleveland Center
07:10AM 41.4089 -82.8758 335° Northwest 271 312 13,100 -600 Level Cleveland Center
07:11AM 41.4636 -82.9125 333° Northwest 275 316 12,100 -1,020 Descending Cleveland Center
07:11AM 41.4800 -82.9183 345° North 277 319 12,100 -180 Level Cleveland Center
07:11AM 41.5078 -82.9378 332° Northwest 282 325 12,000  Descending Cleveland Center
07:12AM 41.5517 -82.9622 337° Northwest 281 323 12,100  Climbing Cleveland Center
07:12AM 41.5778 -82.9808 332° Northwest 273 314 12,000  Descending Cleveland Center
07:13AM 41.6194 -83.0039 338° Northwest 270 311 12,100  Climbing Cleveland Center
07:13AM 41.6458 -83.0233 331° Northwest 264 304 12,000 -120 Descending Cleveland Center
07:14AM 41.6833 -83.0433 338° Northwest 261 300 12,000  Level Cleveland Center
07:14AM 41.7200 -83.0669 334° Northwest 258 297 12,000  Level Cleveland Center
07:15AM 41.7592 -83.0956 331° Northwest 257 296 12,000  Level Cleveland Center
07:15AM 41.7833 -83.1175 326° Northwest 260 299 12,000  Level Cleveland Center
07:16AM 41.8239 -83.1456 333° Northwest 264 304 12,000  Level Cleveland Center
07:16AM 41.8486 -83.1656 329° Northwest 273 314 12,000  Level Cleveland Center
07:17AM 41.8906 -83.1947 333° Northwest 271 312 12,000  Level Cleveland Center
07:17AM 41.9158 -83.2169 327° Northwest 276 318 12,000  Level Cleveland Center
07:18AM 41.9608 -83.2497 332° Northwest 275 316 12,000  Level Cleveland Center
07:18AM 41.9833 -83.2683 328° Northwest 276 318 12,000  Level Cleveland Center
07:19AM 42.0281 -83.3003 332° Northwest 273 314 12,000  Level Cleveland Center
07:19AM 42.0525 -83.3203 329° Northwest 272 313 12,000  Level Cleveland Center
07:20AM 42.0917 -83.3486 332° Northwest 265 305 12,000  Level Cleveland Center
07:20AM 42.1097 -83.3647 326° Northwest 208 239 12,000  Level Cleveland Center
07:21AM 42.1422 -83.3878 332° Northwest 213 245 12,000  Level Cleveland Center
07:21AM 42.1575 -83.3997 330° Northwest 212 244 12,000 -540 Level Cleveland Center
07:22AM 42.1947 -83.4283 330° Northwest 212 244 11,500 -840 Descending Cleveland Center
07:22AM 42.2069 -83.4378 330° Northwest 208 239 11,200 -1,800 Descending Cleveland Center
07:23AM 42.2433 -83.4658 330° Northwest 205 236 9,700 -1,980 Descending Cleveland Center
07:23AM 42.2617 -83.4597 14° North 227 261 9,200 -2,220 Descending Cleveland Center
07:24AM 42.3069 -83.4314 25° Northeast 242 278 7,500 -2,280 Descending Cleveland Center
07:24AM 42.3236 -83.4175 32° Northeast 250 288 6,900 -1,800 Descending Cleveland Center
07:25AM 42.3706 -83.3881 25° Northeast 249 287 5,700 -1,620 Descending Cleveland Center
07:25AM 42.3878 -83.3758 28° Northeast 249 287 5,300 -1,380 Descending Cleveland Center
07:26AM 42.4064 -83.3150 67° East 266 306 4,300 -1,260 Descending Cleveland Center
07:26AM 42.3928 -83.2833 120° Southeast 232 267 3,900 -1,440 Descending Cleveland Center
07:27AM 42.3450 -83.2794 177° South 156 180 2,500 -900 Descending Cleveland Center
07:28AM 42.3247 -83.2939 208° Southwest 178 205 2,400 -120 Descending Cleveland Center
07:28AM 42.3117 -83.3031 207° Southwest 125 144 2,400 -120 Level Cleveland Center
07:29AM 42.2933 -83.3158 207° Southwest 147 169 2,300 -420 Descending Cleveland Center
07:30AM 42.2806 -83.3269 213° Southwest 126 145 2,000 -840 Descending Cleveland Center
07:30AM 42.2628 -83.3400 209° Southwest 133 153 1,500 -840 Descending Cleveland Center
07:31AM 42.2492 -83.3506 210° Southwest 130 150 1,200 -720 Descending Cleveland Center
07:31AM 42.2306 -83.3642 208° Southwest 132 152 800 -540 Descending Cleveland Center